San Jon, NM

10:11 AM MST on January 31, 2015 (GMT -0700)
Tucumcari Municipal | Change Station
CLOSE
Current Station
Airport
Location: Tucumcari,
Elevation: 4065 ft
Nearby Weather Stations

Elev 4065 ft 35.18 °N, 103.60 °W | Updated 18 minutes ago

Overcast
Overcast
37 °F
Feels Like 33 °F
N
5
Wind Variable Wind from SSW

Today
High -- | Low -- °F
--% Chance of Precip.
Yesterday
High -- | Low -- °F
Precip. -- in
6:53 AM 5:20 PM
Waxing Gibbous, 90% visible
Pressure 29.97 in
Visibility 7.0 miles
Clouds Overcast 900 ft
Windchill 33 °F
Dew Point 35 °F
Humidity 93%
Rainfall 0.01 in
Snow Depth Not available.
UV 1 out of 12
Pollen 1.70 out of 12
Air Quality Not available.
Flu Activity Not available.
METAR KTCC 311653Z AUTO 20004KT 7SM -RA OVC009 03/02 A2996 RMK AO2 RAB32 CIG 005V012 SLP147 P0000 T00280017

More Conditions Fewer Conditions

Pressure 29.97 in
Visibility 7.0 miles
Clouds Overcast 900 ft
Windchill 33 °F
Dew Point 35 °F
Humidity 93%
Rainfall 0.01 in
Snow Depth Not available.
UV 1 out of 12
Pollen 1.70 out of 12
Air Quality Not available.
Flu Activity Not available.
METAR KTCC 311653Z AUTO 20004KT 7SM -RA OVC009 03/02 A2996 RMK AO2 RAB32 CIG 005V012 SLP147 P0000 T00280017

More Conditions Fewer Conditions

Nowcast | as of 9:35 am MST on January 31, 2015

Spotty light rain and snow will continue across portions of eastern New Mexico through the morning. Through 11 am precipitation will generally be focused north of Interstate 40 with rainfall amounts of two tenths of an inch or less and little or no additional snow accumulation. However...areas of fog will continue even where precipitation has waned...resulting in visibilities below one mile in some locations.

×

10-Day Weather Forecast

Almanac

Astronomy

Jan. 31, 2015 Rise Set
Actual Time
Civil Twilight
Nautical Twilight
Astronomical Twilight
Moon
Length of Visible Light
Length of Day
Tomorrow will be .
, % of the Moon is Illuminated

Today's Extremes

State Highs State Lows

Community

WunderPhotos

Upload Photos

1,792,122 photos uploaded!

WunderBlogs® & News

Nearby

Air Quality

  Air Quality AQ Index Pollutant
Not available.

Snow Depth

Station Depth Elevation

Earthquake Activity

City Distance Mag. Time & Date
Minimum magnitude displayed is 2.5.

Coastal Water Temperatures

Place Temperature

Nearby Weather Stations